sensor_id;sensor_type;location;lat;lon;timestamp;temperature;humidity
6581;DHT22;3324;50.796;7.228;2023-02-28T00:00:12;2.10;99.90
6581;DHT22;3324;50.796;7.228;2023-02-28T00:02:40;2.10;99.90
6581;DHT22;3324;50.796;7.228;2023-02-28T00:05:08;2.20;99.90
6581;DHT22;3324;50.796;7.228;2023-02-28T00:07:35;2.20;99.90
6581;DHT22;3324;50.796;7.228;2023-02-28T00:10:01;2.30;99.90
6581;DHT22;3324;50.796;7.228;2023-02-28T00:12:27;2.30;99.90
6581;DHT22;3324;50.796;7.228;2023-02-28T00:14:53;2.20;99.90
6581;DHT22;3324;50.796;7.228;2023-02-28T00:17:19;2.10;99.90
6581;DHT22;3324;50.796;7.228;2023-02-28T00:19:50;2.10;99.90
6581;DHT22;3324;50.796;7.228;2023-02-28T00:22:17;2.10;99.90
6581;DHT22;3324;50.796;7.228;2023-02-28T00:24:43;2.10;99.90
6581;DHT22;3324;50.796;7.228;2023-02-28T00:27:09;2.10;99.90
6581;DHT22;3324;50.796;7.228;2023-02-28T00:29:35;2.10;99.90
6581;DHT22;3324;50.796;7.228;2023-02-28T00:32:01;2.10;99.90
6581;DHT22;3324;50.796;7.228;2023-02-28T00:34:27;2.10;99.90
6581;DHT22;3324;50.796;7.228;2023-02-28T00:36:52;2.10;99.90
6581;DHT22;3324;50.796;7.228;2023-02-28T00:39:18;2.10;99.90
6581;DHT22;3324;50.796;7.228;2023-02-28T00:41:43;2.10;99.90
6581;DHT22;3324;50.796;7.228;2023-02-28T00:44:09;2.10;99.90
6581;DHT22;3324;50.796;7.228;2023-02-28T00:46:35;2.10;99.90
6581;DHT22;3324;50.796;7.228;2023-02-28T00:49:00;2.00;99.90
6581;DHT22;3324;50.796;7.228;2023-02-28T00:51:26;2.00;99.90
6581;DHT22;3324;50.796;7.228;2023-02-28T00:53:52;1.90;99.90
6581;DHT22;3324;50.796;7.228;2023-02-28T00:56:17;1.90;99.90
6581;DHT22;3324;50.796;7.228;2023-02-28T00:58:43;1.80;99.90
6581;DHT22;3324;50.796;7.228;2023-02-28T01:01:08;1.70;99.90
6581;DHT22;3324;50.796;7.228;2023-02-28T01:03:34;1.80;99.90
6581;DHT22;3324;50.796;7.228;2023-02-28T01:06:00;1.70;99.90
6581;DHT22;3324;50.796;7.228;2023-02-28T01:08:26;1.70;99.90
6581;DHT22;3324;50.796;7.228;2023-02-28T01:10:52;1.70;99.90
6581;DHT22;3324;50.796;7.228;2023-02-28T01:13:18;1.60;99.90
6581;DHT22;3324;50.796;7.228;2023-02-28T01:15:49;1.60;99.90
6581;DHT22;3324;50.796;7.228;2023-02-28T01:18:15;1.60;99.90
6581;DHT22;3324;50.796;7.228;2023-02-28T01:20:41;1.60;99.90
6581;DHT22;3324;50.796;7.228;2023-02-28T01:23:06;1.60;99.90
6581;DHT22;3324;50.796;7.228;2023-02-28T01:25:36;1.60;99.90
6581;DHT22;3324;50.796;7.228;2023-02-28T01:28:02;1.60;99.90
6581;DHT22;3324;50.796;7.228;2023-02-28T01:30:27;1.60;99.90
6581;DHT22;3324;50.796;7.228;2023-02-28T01:32:53;1.60;99.90
6581;DHT22;3324;50.796;7.228;2023-02-28T01:35:19;1.50;99.90
6581;DHT22;3324;50.796;7.228;2023-02-28T01:37:45;1.40;99.90
6581;DHT22;3324;50.796;7.228;2023-02-28T01:40:11;1.40;99.90
6581;DHT22;3324;50.796;7.228;2023-02-28T01:42:37;1.40;99.90
6581;DHT22;3324;50.796;7.228;2023-02-28T01:45:25;1.40;99.90
6581;DHT22;3324;50.796;7.228;2023-02-28T01:47:55;1.40;99.90
6581;DHT22;3324;50.796;7.228;2023-02-28T01:50:25;1.50;99.90
6581;DHT22;3324;50.796;7.228;2023-02-28T01:52:54;1.50;99.90
6581;DHT22;3324;50.796;7.228;2023-02-28T01:55:22;1.50;99.90
6581;DHT22;3324;50.796;7.228;2023-02-28T01:57:51;1.50;99.90
6581;DHT22;3324;50.796;7.228;2023-02-28T02:00:21;1.50;99.90
6581;DHT22;3324;50.796;7.228;2023-02-28T02:02:51;1.60;99.90
6581;DHT22;3324;50.796;7.228;2023-02-28T02:05:23;1.60;99.90
6581;DHT22;3324;50.796;7.228;2023-02-28T02:07:55;1.70;99.90
6581;DHT22;3324;50.796;7.228;2023-02-28T02:10:30;1.70;99.90
6581;DHT22;3324;50.796;7.228;2023-02-28T02:19:01;1.70;99.90
6581;DHT22;3324;50.796;7.228;2023-02-28T02:30:29;1.70;99.90
6581;DHT22;3324;50.796;7.228;2023-02-28T02:33:10;1.60;99.90
6581;DHT22;3324;50.796;7.228;2023-02-28T02:38:41;1.60;99.90
6581;DHT22;3324;50.796;7.228;2023-02-28T02:41:22;1.50;99.90
6581;DHT22;3324;50.796;7.228;2023-02-28T02:46:45;1.60;99.90
6581;DHT22;3324;50.796;7.228;2023-02-28T02:49:26;1.60;99.90
6581;DHT22;3324;50.796;7.228;2023-02-28T02:51:53;1.60;99.90
6581;DHT22;3324;50.796;7.228;2023-02-28T02:54:25;1.60;99.90
6581;DHT22;3324;50.796;7.228;2023-02-28T02:56:57;1.70;99.90
6581;DHT22;3324;50.796;7.228;2023-02-28T02:59:24;1.70;99.90
6581;DHT22;3324;50.796;7.228;2023-02-28T03:01:57;1.80;99.90
6581;DHT22;3324;50.796;7.228;2023-02-28T03:04:29;1.80;99.90
6581;DHT22;3324;50.796;7.228;2023-02-28T03:06:56;1.50;99.90
6581;DHT22;3324;50.796;7.228;2023-02-28T03:09:22;1.60;99.90
6581;DHT22;3324;50.796;7.228;2023-02-28T03:11:49;1.40;99.90
6581;DHT22;3324;50.796;7.228;2023-02-28T03:22:43;1.40;99.90
6581;DHT22;3324;50.796;7.228;2023-02-28T03:28:02;1.20;99.90
6581;DHT22;3324;50.796;7.228;2023-02-28T03:30:52;1.10;99.90
6581;DHT22;3324;50.796;7.228;2023-02-28T03:35:58;1.00;99.90
6581;DHT22;3324;50.796;7.228;2023-02-28T03:38:51;1.00;99.90
6581;DHT22;3324;50.796;7.228;2023-02-28T03:41:38;1.00;99.90
6581;DHT22;3324;50.796;7.228;2023-02-28T03:44:12;1.10;99.90
6581;DHT22;3324;50.796;7.228;2023-02-28T03:46:44;1.20;99.90
6581;DHT22;3324;50.796;7.228;2023-02-28T03:49:18;1.20;99.90
6581;DHT22;3324;50.796;7.228;2023-02-28T03:51:46;1.20;99.90
6581;DHT22;3324;50.796;7.228;2023-02-28T03:54:17;1.20;99.90
6581;DHT22;3324;50.796;7.228;2023-02-28T03:56:50;1.10;99.90
6581;DHT22;3324;50.796;7.228;2023-02-28T03:59:42;1.10;99.90
6581;DHT22;3324;50.796;7.228;2023-02-28T04:02:08;1.00;99.90
6581;DHT22;3324;50.796;7.228;2023-02-28T04:04:34;1.00;99.90
6581;DHT22;3324;50.796;7.228;2023-02-28T04:07:08;1.00;99.90
6581;DHT22;3324;50.796;7.228;2023-02-28T04:09:34;1.00;99.90
6581;DHT22;3324;50.796;7.228;2023-02-28T04:12:00;1.00;99.90
6581;DHT22;3324;50.796;7.228;2023-02-28T04:14:26;0.90;99.90
6581;DHT22;3324;50.796;7.228;2023-02-28T04:16:52;0.80;99.90
6581;DHT22;3324;50.796;7.228;2023-02-28T04:19:18;0.80;99.90
6581;DHT22;3324;50.796;7.228;2023-02-28T04:21:48;0.70;99.90
6581;DHT22;3324;50.796;7.228;2023-02-28T04:24:23;0.80;99.90
6581;DHT22;3324;50.796;7.228;2023-02-28T04:26:51;0.80;99.90
6581;DHT22;3324;50.796;7.228;2023-02-28T04:29:25;0.80;99.90
6581;DHT22;3324;50.796;7.228;2023-02-28T04:31:51;0.80;99.90
6581;DHT22;3324;50.796;7.228;2023-02-28T04:34:18;0.70;99.90
6581;DHT22;3324;50.796;7.228;2023-02-28T04:36:44;0.70;99.90
6581;DHT22;3324;50.796;7.228;2023-02-28T04:39:11;0.70;99.90
6581;DHT22;3324;50.796;7.228;2023-02-28T04:41:37;0.70;99.90
6581;DHT22;3324;50.796;7.228;2023-02-28T04:44:03;0.70;99.90
6581;DHT22;3324;50.796;7.228;2023-02-28T04:46:28;0.70;99.90
6581;DHT22;3324;50.796;7.228;2023-02-28T04:48:55;0.60;99.90
6581;DHT22;3324;50.796;7.228;2023-02-28T04:51:21;0.70;99.90
6581;DHT22;3324;50.796;7.228;2023-02-28T04:53:47;0.60;99.90
6581;DHT22;3324;50.796;7.228;2023-02-28T04:56:15;0.70;99.90
6581;DHT22;3324;50.796;7.228;2023-02-28T04:58:41;0.70;99.90
6581;DHT22;3324;50.796;7.228;2023-02-28T05:01:20;0.70;99.90
6581;DHT22;3324;50.796;7.228;2023-02-28T05:03:47;0.60;99.90
6581;DHT22;3324;50.796;7.228;2023-02-28T05:06:13;0.60;99.90
6581;DHT22;3324;50.796;7.228;2023-02-28T05:08:39;0.60;99.90
6581;DHT22;3324;50.796;7.228;2023-02-28T05:11:06;0.50;99.90
6581;DHT22;3324;50.796;7.228;2023-02-28T05:13:32;0.60;99.90
6581;DHT22;3324;50.796;7.228;2023-02-28T05:15:57;0.60;99.90
6581;DHT22;3324;50.796;7.228;2023-02-28T05:18:23;0.60;99.90
6581;DHT22;3324;50.796;7.228;2023-02-28T05:20:48;0.60;99.90
6581;DHT22;3324;50.796;7.228;2023-02-28T05:23:14;0.50;99.90
6581;DHT22;3324;50.796;7.228;2023-02-28T05:25:41;0.60;99.90
6581;DHT22;3324;50.796;7.228;2023-02-28T05:28:07;0.60;99.90
6581;DHT22;3324;50.796;7.228;2023-02-28T05:30:32;0.60;99.90
6581;DHT22;3324;50.796;7.228;2023-02-28T05:32:58;0.60;99.90
6581;DHT22;3324;50.796;7.228;2023-02-28T05:35:24;0.60;99.90
6581;DHT22;3324;50.796;7.228;2023-02-28T05:37:50;0.60;99.90
6581;DHT22;3324;50.796;7.228;2023-02-28T05:40:16;0.60;99.90
6581;DHT22;3324;50.796;7.228;2023-02-28T05:42:41;0.60;99.90
6581;DHT22;3324;50.796;7.228;2023-02-28T05:45:08;0.60;99.90
6581;DHT22;3324;50.796;7.228;2023-02-28T05:47:34;0.70;99.90
6581;DHT22;3324;50.796;7.228;2023-02-28T05:50:00;0.60;99.90
6581;DHT22;3324;50.796;7.228;2023-02-28T05:52:27;0.60;99.90
6581;DHT22;3324;50.796;7.228;2023-02-28T05:54:52;0.60;99.90
6581;DHT22;3324;50.796;7.228;2023-02-28T05:57:18;0.60;99.90
6581;DHT22;3324;50.796;7.228;2023-02-28T05:59:44;0.70;99.90
6581;DHT22;3324;50.796;7.228;2023-02-28T06:02:14;0.70;99.90
6581;DHT22;3324;50.796;7.228;2023-02-28T06:04:40;0.70;99.90
6581;DHT22;3324;50.796;7.228;2023-02-28T06:07:07;0.70;99.90
6581;DHT22;3324;50.796;7.228;2023-02-28T06:09:33;0.70;99.90
6581;DHT22;3324;50.796;7.228;2023-02-28T06:12:00;0.70;99.90
6581;DHT22;3324;50.796;7.228;2023-02-28T06:14:28;0.80;99.90
6581;DHT22;3324;50.796;7.228;2023-02-28T06:16:54;0.80;99.90
6581;DHT22;3324;50.796;7.228;2023-02-28T06:19:19;0.90;99.90
6581;DHT22;3324;50.796;7.228;2023-02-28T06:21:45;0.80;99.90
6581;DHT22;3324;50.796;7.228;2023-02-28T06:24:13;0.90;99.90
6581;DHT22;3324;50.796;7.228;2023-02-28T06:26:39;0.80;99.90
6581;DHT22;3324;50.796;7.228;2023-02-28T06:29:05;0.80;99.90
6581;DHT22;3324;50.796;7.228;2023-02-28T06:31:30;0.90;99.90
6581;DHT22;3324;50.796;7.228;2023-02-28T06:33:56;0.90;99.90
6581;DHT22;3324;50.796;7.228;2023-02-28T06:36:22;1.00;99.90
6581;DHT22;3324;50.796;7.228;2023-02-28T06:38:47;0.90;99.90
6581;DHT22;3324;50.796;7.228;2023-02-28T06:41:21;1.00;99.90
6581;DHT22;3324;50.796;7.228;2023-02-28T06:43:46;0.90;99.90
6581;DHT22;3324;50.796;7.228;2023-02-28T06:46:13;0.90;99.90
6581;DHT22;3324;50.796;7.228;2023-02-28T06:48:40;0.90;99.90
6581;DHT22;3324;50.796;7.228;2023-02-28T06:51:08;0.90;99.90
6581;DHT22;3324;50.796;7.228;2023-02-28T06:53:34;0.90;99.90
6581;DHT22;3324;50.796;7.228;2023-02-28T06:56:03;0.80;99.90
6581;DHT22;3324;50.796;7.228;2023-02-28T06:58:30;0.90;99.90
6581;DHT22;3324;50.796;7.228;2023-02-28T07:00:56;0.90;99.90
6581;DHT22;3324;50.796;7.228;2023-02-28T07:03:21;0.90;99.90
6581;DHT22;3324;50.796;7.228;2023-02-28T07:05:48;1.00;99.90
6581;DHT22;3324;50.796;7.228;2023-02-28T07:08:14;1.00;99.90
6581;DHT22;3324;50.796;7.228;2023-02-28T07:10:40;1.10;99.90
6581;DHT22;3324;50.796;7.228;2023-02-28T07:13:07;1.10;99.90
6581;DHT22;3324;50.796;7.228;2023-02-28T07:15:34;1.20;99.90
6581;DHT22;3324;50.796;7.228;2023-02-28T07:17:59;1.20;99.90
6581;DHT22;3324;50.796;7.228;2023-02-28T07:20:25;1.20;99.90
6581;DHT22;3324;50.796;7.228;2023-02-28T07:22:51;1.20;99.90
6581;DHT22;3324;50.796;7.228;2023-02-28T07:25:22;1.30;99.90
6581;DHT22;3324;50.796;7.228;2023-02-28T07:27:48;1.30;99.90
6581;DHT22;3324;50.796;7.228;2023-02-28T07:30:14;1.40;99.90
6581;DHT22;3324;50.796;7.228;2023-02-28T07:32:39;1.40;99.90
6581;DHT22;3324;50.796;7.228;2023-02-28T07:35:05;1.50;99.90
6581;DHT22;3324;50.796;7.228;2023-02-28T07:37:31;1.50;99.90
6581;DHT22;3324;50.796;7.228;2023-02-28T07:40:06;1.50;99.90
6581;DHT22;3324;50.796;7.228;2023-02-28T07:42:34;1.50;99.90
6581;DHT22;3324;50.796;7.228;2023-02-28T07:45:00;1.50;99.90
6581;DHT22;3324;50.796;7.228;2023-02-28T07:47:26;1.50;99.90
6581;DHT22;3324;50.796;7.228;2023-02-28T07:49:51;1.50;99.90
6581;DHT22;3324;50.796;7.228;2023-02-28T07:52:17;1.60;99.90
6581;DHT22;3324;50.796;7.228;2023-02-28T07:54:42;1.60;99.90
6581;DHT22;3324;50.796;7.228;2023-02-28T07:57:08;1.60;99.90
6581;DHT22;3324;50.796;7.228;2023-02-28T07:59:33;1.70;99.90
6581;DHT22;3324;50.796;7.228;2023-02-28T08:01:59;1.80;99.90
6581;DHT22;3324;50.796;7.228;2023-02-28T08:04:25;1.90;99.90
6581;DHT22;3324;50.796;7.228;2023-02-28T08:06:51;1.90;99.90
6581;DHT22;3324;50.796;7.228;2023-02-28T08:09:18;2.00;99.90
6581;DHT22;3324;50.796;7.228;2023-02-28T08:11:44;2.00;99.90
6581;DHT22;3324;50.796;7.228;2023-02-28T08:14:10;2.10;99.90
6581;DHT22;3324;50.796;7.228;2023-02-28T08:16:35;2.10;99.90
6581;DHT22;3324;50.796;7.228;2023-02-28T08:19:01;2.10;99.90
6581;DHT22;3324;50.796;7.228;2023-02-28T08:21:27;2.10;99.90
6581;DHT22;3324;50.796;7.228;2023-02-28T08:23:52;2.10;99.90
6581;DHT22;3324;50.796;7.228;2023-02-28T08:26:18;2.10;99.90
6581;DHT22;3324;50.796;7.228;2023-02-28T08:28:44;2.20;99.90
6581;DHT22;3324;50.796;7.228;2023-02-28T08:31:11;2.30;99.90
6581;DHT22;3324;50.796;7.228;2023-02-28T08:33:38;2.40;99.90
6581;DHT22;3324;50.796;7.228;2023-02-28T08:36:05;2.50;99.90
6581;DHT22;3324;50.796;7.228;2023-02-28T08:38:31;2.60;99.90
6581;DHT22;3324;50.796;7.228;2023-02-28T08:40:58;2.70;99.90
6581;DHT22;3324;50.796;7.228;2023-02-28T08:43:24;2.80;99.90
6581;DHT22;3324;50.796;7.228;2023-02-28T08:45:53;2.80;99.90
6581;DHT22;3324;50.796;7.228;2023-02-28T08:48:19;2.80;99.90
6581;DHT22;3324;50.796;7.228;2023-02-28T08:50:55;2.80;99.90
6581;DHT22;3324;50.796;7.228;2023-02-28T08:53:20;2.90;99.90
6581;DHT22;3324;50.796;7.228;2023-02-28T08:55:46;2.90;99.90
6581;DHT22;3324;50.796;7.228;2023-02-28T08:58:11;3.00;99.90
6581;DHT22;3324;50.796;7.228;2023-02-28T09:00:37;3.10;99.90
6581;DHT22;3324;50.796;7.228;2023-02-28T09:03:03;3.10;99.90
6581;DHT22;3324;50.796;7.228;2023-02-28T09:05:28;3.20;99.90
6581;DHT22;3324;50.796;7.228;2023-02-28T09:07:55;3.30;99.90
6581;DHT22;3324;50.796;7.228;2023-02-28T09:10:21;3.40;99.90
6581;DHT22;3324;50.796;7.228;2023-02-28T09:12:46;3.50;99.90
6581;DHT22;3324;50.796;7.228;2023-02-28T09:15:13;3.50;99.90
6581;DHT22;3324;50.796;7.228;2023-02-28T09:17:38;3.60;99.90
6581;DHT22;3324;50.796;7.228;2023-02-28T09:20:05;3.60;99.90
6581;DHT22;3324;50.796;7.228;2023-02-28T09:22:30;3.50;99.90
6581;DHT22;3324;50.796;7.228;2023-02-28T09:24:56;3.40;99.90
6581;DHT22;3324;50.796;7.228;2023-02-28T09:27:22;3.50;99.90
6581;DHT22;3324;50.796;7.228;2023-02-28T09:29:47;3.60;99.90
6581;DHT22;3324;50.796;7.228;2023-02-28T09:32:13;3.70;99.90
6581;DHT22;3324;50.796;7.228;2023-02-28T09:34:38;3.80;99.90
6581;DHT22;3324;50.796;7.228;2023-02-28T09:37:04;3.80;99.90
6581;DHT22;3324;50.796;7.228;2023-02-28T09:39:30;3.80;99.90
6581;DHT22;3324;50.796;7.228;2023-02-28T09:41:57;3.90;99.90
6581;DHT22;3324;50.796;7.228;2023-02-28T09:44:40;4.00;99.90
6581;DHT22;3324;50.796;7.228;2023-02-28T09:52:53;4.10;99.90
6581;DHT22;3324;50.796;7.228;2023-02-28T09:55:38;4.20;99.90
6581;DHT22;3324;50.796;7.228;2023-02-28T09:58:06;4.20;99.60
6581;DHT22;3324;50.796;7.228;2023-02-28T10:00:38;4.30;98.80
6581;DHT22;3324;50.796;7.228;2023-02-28T10:05:41;4.50;99.90
6581;DHT22;3324;50.796;7.228;2023-02-28T10:10:40;4.40;97.40
6581;DHT22;3324;50.796;7.228;2023-02-28T10:13:25;4.50;98.80
6581;DHT22;3324;50.796;7.228;2023-02-28T10:15:58;4.70;98.80
6581;DHT22;3324;50.796;7.228;2023-02-28T10:18:38;4.80;97.40
6581;DHT22;3324;50.796;7.228;2023-02-28T10:21:05;4.80;96.80
6581;DHT22;3324;50.796;7.228;2023-02-28T10:23:34;4.80;96.60
6581;DHT22;3324;50.796;7.228;2023-02-28T10:26:16;4.80;95.80
6581;DHT22;3324;50.796;7.228;2023-02-28T10:28:42;4.90;97.10
6581;DHT22;3324;50.796;7.228;2023-02-28T10:31:14;5.10;97.50
6581;DHT22;3324;50.796;7.228;2023-02-28T10:33:40;5.20;96.50
6581;DHT22;3324;50.796;7.228;2023-02-28T10:36:08;5.20;96.20
6581;DHT22;3324;50.796;7.228;2023-02-28T10:38:38;5.30;96.70
6581;DHT22;3324;50.796;7.228;2023-02-28T10:41:12;5.20;95.50
6581;DHT22;3324;50.796;7.228;2023-02-28T10:43:40;5.40;95.90
6581;DHT22;3324;50.796;7.228;2023-02-28T10:46:13;5.50;95.40
6581;DHT22;3324;50.796;7.228;2023-02-28T10:49:27;5.60;94.90
6581;DHT22;3324;50.796;7.228;2023-02-28T10:51:56;5.70;94.00
6581;DHT22;3324;50.796;7.228;2023-02-28T10:54:34;5.80;94.70
6581;DHT22;3324;50.796;7.228;2023-02-28T10:59:41;5.70;93.40
6581;DHT22;3324;50.796;7.228;2023-02-28T11:02:32;5.60;94.20
6581;DHT22;3324;50.796;7.228;2023-02-28T11:04:59;5.70;95.20
6581;DHT22;3324;50.796;7.228;2023-02-28T11:07:26;5.80;94.60
6581;DHT22;3324;50.796;7.228;2023-02-28T11:09:55;5.90;94.60
6581;DHT22;3324;50.796;7.228;2023-02-28T11:12:40;6.00;92.20
6581;DHT22;3324;50.796;7.228;2023-02-28T11:15:25;6.00;92.60
6581;DHT22;3324;50.796;7.228;2023-02-28T11:18:01;6.10;92.20
6581;DHT22;3324;50.796;7.228;2023-02-28T11:20:30;6.20;92.70
6581;DHT22;3324;50.796;7.228;2023-02-28T11:22:58;6.20;92.50
6581;DHT22;3324;50.796;7.228;2023-02-28T11:25:37;6.40;92.80
6581;DHT22;3324;50.796;7.228;2023-02-28T11:28:06;6.40;92.00
6581;DHT22;3324;50.796;7.228;2023-02-28T11:31:20;6.50;92.00
6581;DHT22;3324;50.796;7.228;2023-02-28T11:33:55;6.60;92.70
6581;DHT22;3324;50.796;7.228;2023-02-28T11:36:28;6.60;92.00
6581;DHT22;3324;50.796;7.228;2023-02-28T11:39:16;6.60;91.30
6581;DHT22;3324;50.796;7.228;2023-02-28T11:42:00;6.70;91.60
6581;DHT22;3324;50.796;7.228;2023-02-28T11:44:56;6.70;92.10
6581;DHT22;3324;50.796;7.228;2023-02-28T11:52:56;6.80;91.80
6581;DHT22;3324;50.796;7.228;2023-02-28T11:55:26;6.90;91.90
6581;DHT22;3324;50.796;7.228;2023-02-28T12:01:03;6.80;91.90
6581;DHT22;3324;50.796;7.228;2023-02-28T12:04:21;6.70;91.90
6581;DHT22;3324;50.796;7.228;2023-02-28T12:07:00;6.80;92.20
6581;DHT22;3324;50.796;7.228;2023-02-28T12:10:03;6.80;91.90
6581;DHT22;3324;50.796;7.228;2023-02-28T12:12:39;6.60;90.80
6581;DHT22;3324;50.796;7.228;2023-02-28T12:28:43;6.80;90.90
6581;DHT22;3324;50.796;7.228;2023-02-28T12:33:51;6.70;91.30
6581;DHT22;3324;50.796;7.228;2023-02-28T12:36:19;6.40;91.50
6581;DHT22;3324;50.796;7.228;2023-02-28T12:41:41;6.50;92.10
6581;DHT22;3324;50.796;7.228;2023-02-28T12:44:33;6.50;91.30
6581;DHT22;3324;50.796;7.228;2023-02-28T12:47:03;6.50;91.30
6581;DHT22;3324;50.796;7.228;2023-02-28T12:52:00;6.70;91.40
6581;DHT22;3324;50.796;7.228;2023-02-28T12:57:25;6.70;91.50
6581;DHT22;3324;50.796;7.228;2023-02-28T12:59:56;6.70;92.00
6581;DHT22;3324;50.796;7.228;2023-02-28T13:05:19;7.00;91.80
6581;DHT22;3324;50.796;7.228;2023-02-28T13:10:48;7.10;91.40
6581;DHT22;3324;50.796;7.228;2023-02-28T13:13:24;7.10;91.80
6581;DHT22;3324;50.796;7.228;2023-02-28T13:16:08;7.20;92.20
6581;DHT22;3324;50.796;7.228;2023-02-28T13:18:38;7.40;91.20
6581;DHT22;3324;50.796;7.228;2023-02-28T13:21:09;7.40;91.70
6581;DHT22;3324;50.796;7.228;2023-02-28T13:34:37;7.30;90.90
6581;DHT22;3324;50.796;7.228;2023-02-28T13:37:36;7.20;90.90
6581;DHT22;3324;50.796;7.228;2023-02-28T13:42:38;7.20;90.40
6581;DHT22;3324;50.796;7.228;2023-02-28T13:47:41;7.20;89.90
6581;DHT22;3324;50.796;7.228;2023-02-28T13:55:46;7.40;90.50
6581;DHT22;3324;50.796;7.228;2023-02-28T14:01:08;7.60;89.10
6581;DHT22;3324;50.796;7.228;2023-02-28T14:06:32;7.50;90.60
6581;DHT22;3324;50.796;7.228;2023-02-28T14:11:39;7.50;90.80
6581;DHT22;3324;50.796;7.228;2023-02-28T14:14:07;7.60;90.50
6581;DHT22;3324;50.796;7.228;2023-02-28T14:16:44;7.70;91.40
6581;DHT22;3324;50.796;7.228;2023-02-28T14:19:26;7.60;90.30
6581;DHT22;3324;50.796;7.228;2023-02-28T14:22:12;7.50;90.00
6581;DHT22;3324;50.796;7.228;2023-02-28T14:25:38;7.40;90.30
6581;DHT22;3324;50.796;7.228;2023-02-28T14:28:23;7.40;90.80
6581;DHT22;3324;50.796;7.228;2023-02-28T14:31:08;7.40;89.90
6581;DHT22;3324;50.796;7.228;2023-02-28T14:36:42;7.60;90.00
6581;DHT22;3324;50.796;7.228;2023-02-28T14:39:16;7.70;90.20
6581;DHT22;3324;50.796;7.228;2023-02-28T14:41:45;7.70;90.20
6581;DHT22;3324;50.796;7.228;2023-02-28T14:44:20;7.60;88.80
6581;DHT22;3324;50.796;7.228;2023-02-28T14:46:52;7.40;88.40
6581;DHT22;3324;50.796;7.228;2023-02-28T14:49:42;7.30;89.40
6581;DHT22;3324;50.796;7.228;2023-02-28T14:52:28;7.30;89.90
6581;DHT22;3324;50.796;7.228;2023-02-28T14:55:05;7.20;90.10
6581;DHT22;3324;50.796;7.228;2023-02-28T14:57:40;7.20;90.00
6581;DHT22;3324;50.796;7.228;2023-02-28T15:02:42;7.00;90.40
6581;DHT22;3324;50.796;7.228;2023-02-28T15:05:31;7.00;90.20
6581;DHT22;3324;50.796;7.228;2023-02-28T15:10:28;7.10;91.10
6581;DHT22;3324;50.796;7.228;2023-02-28T15:15:43;7.10;90.50
6581;DHT22;3324;50.796;7.228;2023-02-28T15:21:15;7.00;90.30
6581;DHT22;3324;50.796;7.228;2023-02-28T15:23:45;6.90;91.70
6581;DHT22;3324;50.796;7.228;2023-02-28T15:26:21;6.90;90.90
6581;DHT22;3324;50.796;7.228;2023-02-28T15:28:55;7.00;91.00
6581;DHT22;3324;50.796;7.228;2023-02-28T15:31:34;7.00;91.50
6581;DHT22;3324;50.796;7.228;2023-02-28T15:34:05;7.10;90.70
6581;DHT22;3324;50.796;7.228;2023-02-28T15:36:33;7.00;91.30
6581;DHT22;3324;50.796;7.228;2023-02-28T15:39:03;7.00;91.10
6581;DHT22;3324;50.796;7.228;2023-02-28T15:41:37;7.00;90.80
6581;DHT22;3324;50.796;7.228;2023-02-28T15:44:26;7.00;91.20
6581;DHT22;3324;50.796;7.228;2023-02-28T15:49:22;6.90;91.00
6581;DHT22;3324;50.796;7.228;2023-02-28T15:51:53;6.90;91.20
6581;DHT22;3324;50.796;7.228;2023-02-28T15:54:30;7.00;90.70
6581;DHT22;3324;50.796;7.228;2023-02-28T15:57:01;7.00;91.00
6581;DHT22;3324;50.796;7.228;2023-02-28T15:59:29;6.90;90.90
6581;DHT22;3324;50.796;7.228;2023-02-28T16:02:16;7.00;91.00
6581;DHT22;3324;50.796;7.228;2023-02-28T16:04:58;7.00;91.00
6581;DHT22;3324;50.796;7.228;2023-02-28T16:07:24;6.90;90.60
6581;DHT22;3324;50.796;7.228;2023-02-28T16:09:50;6.90;91.20
6581;DHT22;3324;50.796;7.228;2023-02-28T16:12:16;6.80;91.00
6581;DHT22;3324;50.796;7.228;2023-02-28T16:14:42;6.70;91.30
6581;DHT22;3324;50.796;7.228;2023-02-28T16:17:22;6.70;91.60
6581;DHT22;3324;50.796;7.228;2023-02-28T16:19:48;6.70;91.80
6581;DHT22;3324;50.796;7.228;2023-02-28T16:22:14;6.70;91.50
6581;DHT22;3324;50.796;7.228;2023-02-28T16:24:39;6.70;91.30
6581;DHT22;3324;50.796;7.228;2023-02-28T16:27:05;6.70;91.20
6581;DHT22;3324;50.796;7.228;2023-02-28T16:29:34;6.70;91.00
6581;DHT22;3324;50.796;7.228;2023-02-28T16:32:03;6.70;91.40
6581;DHT22;3324;50.796;7.228;2023-02-28T16:34:29;6.70;91.70
6581;DHT22;3324;50.796;7.228;2023-02-28T16:36:55;6.60;92.10
6581;DHT22;3324;50.796;7.228;2023-02-28T16:39:20;6.50;91.70
6581;DHT22;3324;50.796;7.228;2023-02-28T16:41:47;6.50;91.90
6581;DHT22;3324;50.796;7.228;2023-02-28T16:44:27;6.50;92.10
6581;DHT22;3324;50.796;7.228;2023-02-28T16:46:53;6.40;92.20
6581;DHT22;3324;50.796;7.228;2023-02-28T16:49:19;6.40;92.40
6581;DHT22;3324;50.796;7.228;2023-02-28T16:51:46;6.40;92.00
6581;DHT22;3324;50.796;7.228;2023-02-28T16:54:12;6.40;92.30
6581;DHT22;3324;50.796;7.228;2023-02-28T16:56:40;6.30;92.90
6581;DHT22;3324;50.796;7.228;2023-02-28T16:59:08;6.30;92.40
6581;DHT22;3324;50.796;7.228;2023-02-28T17:01:34;6.30;92.60
6581;DHT22;3324;50.796;7.228;2023-02-28T17:03:59;6.20;92.70
6581;DHT22;3324;50.796;7.228;2023-02-28T17:06:27;6.20;93.20
6581;DHT22;3324;50.796;7.228;2023-02-28T17:08:54;6.20;92.90
6581;DHT22;3324;50.796;7.228;2023-02-28T17:11:20;6.10;93.20
6581;DHT22;3324;50.796;7.228;2023-02-28T17:13:46;6.00;93.70
6581;DHT22;3324;50.796;7.228;2023-02-28T17:16:30;6.00;93.80
6581;DHT22;3324;50.796;7.228;2023-02-28T17:19:03;5.90;94.00
6581;DHT22;3324;50.796;7.228;2023-02-28T17:21:30;5.90;93.90
6581;DHT22;3324;50.796;7.228;2023-02-28T17:23:57;5.90;94.40
6581;DHT22;3324;50.796;7.228;2023-02-28T17:26:23;5.80;94.60
6581;DHT22;3324;50.796;7.228;2023-02-28T17:28:56;5.80;95.10
6581;DHT22;3324;50.796;7.228;2023-02-28T17:31:26;5.70;95.40
6581;DHT22;3324;50.796;7.228;2023-02-28T17:33:52;5.60;95.50
6581;DHT22;3324;50.796;7.228;2023-02-28T17:36:24;5.60;95.70
6581;DHT22;3324;50.796;7.228;2023-02-28T17:38:52;5.60;96.00
6581;DHT22;3324;50.796;7.228;2023-02-28T17:41:18;5.40;95.90
6581;DHT22;3324;50.796;7.228;2023-02-28T17:43:44;5.40;95.90
6581;DHT22;3324;50.796;7.228;2023-02-28T17:46:21;5.40;96.00
6581;DHT22;3324;50.796;7.228;2023-02-28T17:48:48;5.40;96.40
6581;DHT22;3324;50.796;7.228;2023-02-28T17:51:14;5.40;96.00
6581;DHT22;3324;50.796;7.228;2023-02-28T17:53:40;5.30;96.10
6581;DHT22;3324;50.796;7.228;2023-02-28T17:56:12;5.30;96.10
6581;DHT22;3324;50.796;7.228;2023-02-28T17:58:38;5.30;96.00
6581;DHT22;3324;50.796;7.228;2023-02-28T18:01:03;5.20;96.40
6581;DHT22;3324;50.796;7.228;2023-02-28T18:03:30;5.20;96.30
6581;DHT22;3324;50.796;7.228;2023-02-28T18:05:56;5.20;96.70
6581;DHT22;3324;50.796;7.228;2023-02-28T18:08:22;5.20;96.60
6581;DHT22;3324;50.796;7.228;2023-02-28T18:10:48;5.20;96.70
6581;DHT22;3324;50.796;7.228;2023-02-28T18:13:13;5.10;96.90
6581;DHT22;3324;50.796;7.228;2023-02-28T18:15:39;5.10;96.50
6581;DHT22;3324;50.796;7.228;2023-02-28T18:18:05;5.00;96.80
6581;DHT22;3324;50.796;7.228;2023-02-28T18:20:32;5.00;97.00
6581;DHT22;3324;50.796;7.228;2023-02-28T18:22:58;5.00;96.60
6581;DHT22;3324;50.796;7.228;2023-02-28T18:25:23;4.90;96.80
6581;DHT22;3324;50.796;7.228;2023-02-28T18:27:49;4.90;98.00
6581;DHT22;3324;50.796;7.228;2023-02-28T18:30:26;4.80;98.00
6581;DHT22;3324;50.796;7.228;2023-02-28T18:32:53;4.80;98.40
6581;DHT22;3324;50.796;7.228;2023-02-28T18:35:19;4.80;98.00
6581;DHT22;3324;50.796;7.228;2023-02-28T18:38:03;4.80;98.50
6581;DHT22;3324;50.796;7.228;2023-02-28T18:40:29;4.70;98.70
6581;DHT22;3324;50.796;7.228;2023-02-28T18:42:55;4.80;99.30
6581;DHT22;3324;50.796;7.228;2023-02-28T18:45:20;4.80;99.50
6581;DHT22;3324;50.796;7.228;2023-02-28T18:47:46;4.70;98.80